Airport View

Enter AWOS ICAO identifier for current METAR.

KFNL for example

KPIT 260951Z 16004KT 10SM FEW050 BKN090 OVC220 19/13 A3010

26 May 2016 10:32

Phone: 412-472-0145

Other Area AWOS: 42PN - KAGC - KBVI - KBTP

TAF AMD KPIT 260855Z 2609/2712 18005KT P6SM OVC100 FM261200 21007KT P6SM VCSH BKN050 FM262100 22005KT P6SM BKN080